Time;durP1;ratioP1;P1;durP2;ratioP2;P2;SDS_P1;SDS_P2;PMS_P1;PMS_P2;Temp;Humidity;BMP_temperature;BMP_pressure;BME280_temperature;BME280_humidity;BME280_pressure;Samples;Min_cycle;Max_cycle;Signal;HPM_P1;HPM_P2
2023/05/03 00:01:00;;;;;;;4.27;3.10;;;13.90;99.90;;;;;;7389137;19;20138;-78
2023/05/03 00:03:26;;;;;;;4.35;2.95;;;13.80;99.90;;;;;;7388425;19;20761;-79
2023/05/03 00:05:52;;;;;;;3.13;2.63;;;13.80;99.90;;;;;;7387154;19;20151;-80
2023/05/03 00:08:18;;;;;;;3.90;2.80;;;13.80;99.90;;;;;;7388502;19;20150;-78
2023/05/03 00:10:44;;;;;;;4.60;2.50;;;13.80;99.90;;;;;;7389830;19;20165;-79
2023/05/03 00:13:09;;;;;;;4.47;3.03;;;13.80;99.90;;;;;;7390234;19;20143;-80
2023/05/03 00:15:35;;;;;;;3.73;2.80;;;13.80;99.90;;;;;;7389003;19;20159;-79
2023/05/03 00:18:01;;;;;;;3.03;2.72;;;13.80;99.90;;;;;;7385590;19;20138;-78
2023/05/03 00:20:27;;;;;;;4.18;2.83;;;13.60;99.90;;;;;;7388325;19;20126;-79
2023/05/03 00:22:53;;;;;;;3.37;2.63;;;13.60;99.90;;;;;;7384800;19;20198;-79
2023/05/03 00:25:19;;;;;;;3.42;2.53;;;13.70;99.90;;;;;;7388723;19;20172;-78
2023/05/03 00:27:44;;;;;;;3.25;2.83;;;13.70;99.90;;;;;;7388044;19;20153;-79
2023/05/03 00:30:12;;;;;;;3.50;2.73;;;13.80;99.90;;;;;;7380294;19;20146;-79
2023/05/03 00:32:38;;;;;;;5.13;2.60;;;13.70;99.90;;;;;;7383002;19;20139;-79
2023/05/03 00:35:04;;;;;;;4.53;2.50;;;13.60;99.90;;;;;;7391986;19;20162;-78
2023/05/03 00:37:30;;;;;;;4.83;2.60;;;13.60;99.90;;;;;;7387579;19;20159;-77
2023/05/03 00:39:55;;;;;;;3.53;2.90;;;13.50;99.90;;;;;;7389252;19;20150;-79
2023/05/03 00:42:22;;;;;;;3.80;2.53;;;13.50;99.90;;;;;;7386562;19;20190;-77
2023/05/03 00:44:48;;;;;;;4.07;2.53;;;13.50;99.90;;;;;;7387322;19;20150;-78
2023/05/03 00:47:15;;;;;;;4.40;2.67;;;13.50;99.90;;;;;;7386738;19;21021;-78
2023/05/03 00:49:41;;;;;;;3.92;2.53;;;13.50;99.90;;;;;;7388084;19;20139;-78
2023/05/03 00:52:08;;;;;;;3.10;2.50;;;13.50;99.90;;;;;;7385667;19;21102;-78
2023/05/03 00:54:34;;;;;;;2.63;2.27;;;13.40;99.90;;;;;;7388297;19;20135;-77
2023/05/03 00:57:00;;;;;;;3.83;2.50;;;13.50;99.90;;;;;;7383989;19;20147;-79
2023/05/03 00:59:27;;;;;;;3.47;2.53;;;13.50;99.90;;;;;;7386236;19;20166;-78
2023/05/03 01:01:53;;;;;;;4.13;2.90;;;13.50;99.90;;;;;;7387342;19;20146;-79
2023/05/03 01:04:20;;;;;;;2.83;2.20;;;13.40;99.90;;;;;;7386232;19;20590;-78
2023/05/03 01:07:13;;;;;;;3.03;2.38;;;13.20;99.90;;;;;;7388116;19;20202;-78
2023/05/03 01:09:49;;;;;;;4.13;2.50;;;13.30;99.90;;;;;;7388889;19;20138;-79
2023/05/03 01:12:35;;;;;;;3.70;2.60;;;13.40;99.90;;;;;;7386105;19;20126;-77
2023/05/03 01:15:28;;;;;;;3.05;2.35;;;13.50;99.90;;;;;;7384283;19;20141;-78
2023/05/03 01:17:58;;;;;;;5.85;2.55;;;13.50;99.90;;;;;;7387502;19;20130;-78
2023/05/03 01:20:29;;;;;;;2.42;2.22;;;13.40;99.90;;;;;;7387395;19;20158;-79
2023/05/03 01:23:04;;;;;;;3.92;2.55;;;13.60;99.90;;;;;;7388496;19;20131;-79
2023/05/03 01:25:31;;;;;;;4.75;3.05;;;13.40;99.90;;;;;;7386899;19;20475;-79
2023/05/03 01:27:57;;;;;;;4.87;2.73;;;13.30;99.90;;;;;;7387782;19;20368;-79
2023/05/03 01:30:26;;;;;;;4.03;3.03;;;13.30;99.90;;;;;;7385634;19;20150;-78
2023/05/03 01:33:39;;;;;;;3.50;3.00;;;13.20;99.90;;;;;;7387257;19;20127;-80
2023/05/03 01:36:12;;;;;;;3.47;2.60;;;13.20;99.90;;;;;;7386549;19;20146;-78
2023/05/03 01:38:38;;;;;;;3.53;2.67;;;13.10;99.90;;;;;;7383776;19;20142;-79
2023/05/03 01:41:09;;;;;;;4.78;3.30;;;13.20;99.90;;;;;;7385014;19;20552;-79
2023/05/03 01:43:35;;;;;;;6.27;2.80;;;13.20;99.90;;;;;;7388616;19;20154;-78
2023/05/03 01:46:01;;;;;;;2.80;2.55;;;13.30;99.90;;;;;;7394265;19;20157;-79
2023/05/03 01:48:27;;;;;;;4.90;2.90;;;13.20;99.90;;;;;;7398662;19;20161;-79
2023/05/03 01:50:53;;;;;;;3.70;2.80;;;13.20;99.90;;;;;;7401028;19;20139;-78
2023/05/03 01:53:19;;;;;;;3.88;2.70;;;13.10;99.90;;;;;;7399789;19;20153;-78
2023/05/03 01:55:44;;;;;;;4.13;2.87;;;13.10;99.90;;;;;;7399657;19;20154;-78
2023/05/03 01:58:11;;;;;;;6.18;2.30;;;13.10;99.90;;;;;;7399272;19;20150;-78
2023/05/03 02:00:37;;;;;;;3.80;2.83;;;13.10;99.90;;;;;;7398994;19;20194;-78
2023/05/03 02:03:03;;;;;;;5.30;3.13;;;13.00;99.90;;;;;;7399490;19;20147;-79
2023/05/03 02:05:29;;;;;;;4.60;3.10;;;13.10;99.90;;;;;;7399397;19;20144;-79
2023/05/03 02:07:55;;;;;;;3.17;2.50;;;13.00;99.90;;;;;;7399898;19;20159;-80
2023/05/03 02:10:21;;;;;;;7.28;3.53;;;13.00;99.90;;;;;;7397495;19;20134;-79
2023/05/03 02:12:46;;;;;;;3.72;2.78;;;13.00;99.90;;;;;;7400222;19;20162;-78
2023/05/03 02:15:12;;;;;;;3.00;2.43;;;13.00;99.90;;;;;;7399754;19;20483;-79
2023/05/03 02:17:39;;;;;;;2.95;2.50;;;12.80;99.90;;;;;;7398510;19;20130;-80
2023/05/03 02:20:08;;;;;;;5.05;2.95;;;12.70;99.90;;;;;;7399343;19;21069;-79
2023/05/03 02:22:34;;;;;;;4.17;2.60;;;12.80;99.90;;;;;;7398293;19;20154;-79
2023/05/03 02:25:00;;;;;;;4.60;3.10;;;12.80;99.90;;;;;;7400421;19;20169;-79
2023/05/03 02:27:26;;;;;;;5.03;3.30;;;12.90;99.90;;;;;;7397849;19;20143;-79
2023/05/03 02:29:52;;;;;;;4.77;3.27;;;12.90;99.90;;;;;;7397302;19;20142;-79
2023/05/03 02:32:19;;;;;;;4.45;3.25;;;12.80;99.90;;;;;;7398420;19;20238;-79
2023/05/03 02:34:49;;;;;;;4.60;3.60;;;12.90;99.90;;;;;;7396362;19;20138;-78
2023/05/03 02:37:15;;;;;;;4.87;3.43;;;12.80;99.90;;;;;;7400336;19;20477;-79
2023/05/03 02:39:41;;;;;;;5.40;3.37;;;12.90;99.90;;;;;;7394830;19;20150;-78
2023/05/03 02:42:08;;;;;;;4.47;3.20;;;12.80;99.90;;;;;;7395555;19;20186;-78
2023/05/03 02:44:34;;;;;;;4.00;2.92;;;12.60;99.90;;;;;;7397268;19;20173;-80
2023/05/03 02:47:00;;;;;;;4.67;3.63;;;12.70;99.90;;;;;;7398748;19;20182;-78
2023/05/03 02:49:26;;;;;;;4.20;3.30;;;12.80;99.90;;;;;;7395061;19;20454;-77
2023/05/03 02:51:55;;;;;;;4.63;3.20;;;12.70;99.90;;;;;;7396177;19;20636;-79
2023/05/03 02:54:21;;;;;;;4.83;3.37;;;12.70;99.90;;;;;;7393571;19;20147;-78
2023/05/03 02:56:47;;;;;;;5.85;4.15;;;12.60;99.90;;;;;;7392180;19;20167;-79
2023/05/03 02:59:13;;;;;;;5.80;3.77;;;12.60;99.90;;;;;;7388268;19;20131;-79
2023/05/03 03:01:39;;;;;;;5.13;3.57;;;12.60;99.90;;;;;;7390228;19;20158;-79
2023/05/03 03:04:05;;;;;;;6.00;3.87;;;12.40;99.90;;;;;;7389239;19;20139;-79
2023/05/03 03:06:31;;;;;;;4.95;3.78;;;12.30;99.90;;;;;;7390715;19;20182;-79
2023/05/03 03:08:57;;;;;;;3.97;3.13;;;12.40;99.90;;;;;;7392893;19;20138;-79
2023/05/03 03:11:24;;;;;;;5.73;4.13;;;12.60;99.90;;;;;;7393823;19;20242;-80
2023/05/03 03:13:49;;;;;;;4.83;3.93;;;12.70;99.90;;;;;;7390355;19;20161;-79
2023/05/03 03:16:15;;;;;;;4.57;3.50;;;12.70;99.90;;;;;;7389851;19;21074;-80
2023/05/03 03:18:41;;;;;;;7.63;4.00;;;12.60;99.90;;;;;;7389363;19;20146;-78
2023/05/03 03:21:07;;;;;;;7.30;3.90;;;12.60;99.90;;;;;;7388850;19;20155;-79
2023/05/03 03:23:32;;;;;;;4.97;3.67;;;12.60;99.90;;;;;;7390872;19;20616;-78
2023/05/03 03:25:58;;;;;;;5.37;3.63;;;12.50;99.90;;;;;;7389139;19;20230;-78
2023/05/03 03:28:24;;;;;;;5.13;4.03;;;12.50;99.90;;;;;;7389326;19;20510;-78
2023/05/03 03:30:52;;;;;;;6.40;4.10;;;12.50;99.90;;;;;;7386231;19;20134;-78
2023/05/03 03:33:18;;;;;;;4.47;3.73;;;12.50;99.90;;;;;;7391283;19;20142;-78
2023/05/03 03:35:44;;;;;;;7.87;4.57;;;12.50;99.90;;;;;;7391562;19;20140;-78
2023/05/03 03:38:10;;;;;;;8.23;4.80;;;12.40;99.90;;;;;;7388246;19;20218;-77
2023/05/03 03:40:36;;;;;;;6.47;4.50;;;12.30;99.90;;;;;;7388903;19;20137;-79
2023/05/03 03:43:02;;;;;;;6.10;4.57;;;12.30;99.90;;;;;;7389783;19;20282;-78
2023/05/03 03:45:27;;;;;;;6.27;4.40;;;12.30;99.90;;;;;;7390936;19;20134;-79
2023/05/03 03:47:56;;;;;;;5.63;4.30;;;12.20;99.90;;;;;;7390746;19;20150;-79
2023/05/03 03:50:23;;;;;;;4.73;3.97;;;12.40;99.90;;;;;;7390326;19;20150;-78
2023/05/03 03:52:49;;;;;;;6.17;4.67;;;12.10;99.90;;;;;;7387984;19;20485;-79
2023/05/03 03:55:15;;;;;;;7.67;4.57;;;12.10;99.90;;;;;;7392079;19;20146;-77
2023/05/03 03:57:41;;;;;;;4.80;4.07;;;12.10;99.90;;;;;;7386553;19;20162;-78
2023/05/03 04:00:09;;;;;;;6.57;4.23;;;12.10;99.90;;;;;;7393027;19;20146;-79
2023/05/03 04:02:35;;;;;;;7.03;4.70;;;12.20;99.90;;;;;;7387708;19;20150;-77
2023/05/03 04:05:00;;;;;;;6.57;4.50;;;12.10;99.90;;;;;;7390878;19;20138;-78
2023/05/03 04:07:26;;;;;;;7.00;4.43;;;12.00;99.90;;;;;;7388081;19;20277;-78
2023/05/03 04:09:52;;;;;;;8.73;4.47;;;12.00;99.90;;;;;;7392104;19;20659;-79
2023/05/03 04:12:18;;;;;;;7.77;4.93;;;11.90;99.90;;;;;;7388850;19;20591;-79
2023/05/03 04:14:44;;;;;;;9.20;5.10;;;11.80;99.90;;;;;;7390837;19;20135;-79
2023/05/03 04:17:11;;;;;;;9.97;4.63;;;11.90;99.90;;;;;;7389962;19;20289;-78
2023/05/03 04:19:37;;;;;;;8.30;5.07;;;12.00;99.90;;;;;;7387483;19;20146;-79
2023/05/03 04:22:03;;;;;;;9.23;4.83;;;12.00;99.90;;;;;;7388373;19;20149;-78
2023/05/03 04:24:29;;;;;;;10.00;5.57;;;11.90;99.90;;;;;;7389657;19;20139;-79
2023/05/03 04:26:55;;;;;;;7.27;4.73;;;11.90;99.90;;;;;;7389125;19;20181;-80
2023/05/03 04:29:21;;;;;;;7.03;4.53;;;12.00;99.90;;;;;;7390882;19;20143;-79
2023/05/03 04:31:47;;;;;;;8.60;5.07;;;12.00;99.90;;;;;;7388202;19;20152;-79
2023/05/03 04:34:14;;;;;;;6.37;4.90;;;12.00;99.90;;;;;;7388445;19;20139;-80
2023/05/03 04:36:47;;;;;;;7.67;4.77;;;12.00;99.90;;;;;;7387321;19;20155;-78
2023/05/03 04:39:14;;;;;;;6.33;4.93;;;11.90;99.90;;;;;;7388304;19;20146;-79
2023/05/03 04:41:41;;;;;;;9.63;5.30;;;12.00;99.90;;;;;;7388996;19;20233;-78
2023/05/03 04:44:06;;;;;;;8.57;5.03;;;11.90;99.90;;;;;;7389258;19;20207;-79
2023/05/03 04:46:32;;;;;;;6.40;4.83;;;12.00;99.90;;;;;;7387642;19;20145;-77
2023/05/03 04:48:58;;;;;;;7.80;5.33;;;11.90;99.90;;;;;;7389306;19;20218;-78
2023/05/03 04:51:24;;;;;;;8.70;5.23;;;11.90;99.90;;;;;;7386412;19;20149;-79
2023/05/03 04:53:50;;;;;;;7.57;4.73;;;12.00;99.90;;;;;;7391013;19;20567;-77
2023/05/03 04:56:16;;;;;;;7.87;5.20;;;12.00;99.90;;;;;;7388233;19;20141;-79
2023/05/03 04:58:43;;;;;;;7.63;4.60;;;12.10;99.90;;;;;;7391121;19;20142;-80
2023/05/03 05:01:09;;;;;;;9.03;5.97;;;12.10;99.90;;;;;;7389146;19;20154;-79
2023/05/03 05:03:35;;;;;;;8.10;5.13;;;12.20;99.90;;;;;;7386855;19;20142;-80
2023/05/03 05:06:01;;;;;;;9.13;6.17;;;12.20;99.90;;;;;;7389871;19;20759;-80
2023/05/03 05:08:26;;;;;;;6.60;5.20;;;12.10;99.90;;;;;;7388319;19;20499;-80
2023/05/03 05:10:52;;;;;;;7.77;5.30;;;12.20;99.90;;;;;;7390212;19;20478;-80
2023/05/03 05:13:18;;;;;;;7.37;4.97;;;12.10;99.90;;;;;;7386866;19;20138;-79
2023/05/03 05:15:44;;;;;;;9.30;5.47;;;12.20;99.90;;;;;;7389217;19;20218;-80
2023/05/03 05:18:09;;;;;;;8.97;5.47;;;12.20;99.90;;;;;;7386456;19;20149;-79
2023/05/03 05:20:35;;;;;;;7.93;5.50;;;12.20;99.90;;;;;;7386852;19;20154;-79
2023/05/03 05:23:01;;;;;;;7.97;6.37;;;12.30;99.90;;;;;;7388672;19;20171;-80
2023/05/03 05:25:27;;;;;;;9.87;6.20;;;12.30;99.90;;;;;;7386979;19;20131;-79
2023/05/03 05:27:52;;;;;;;7.83;5.57;;;12.30;99.90;;;;;;7388564;19;20138;-79
2023/05/03 05:30:18;;;;;;;13.23;5.47;;;12.40;99.90;;;;;;7388347;19;20134;-80
2023/05/03 05:32:44;;;;;;;11.43;7.50;;;12.40;99.90;;;;;;7387955;19;20883;-81
2023/05/03 05:35:10;;;;;;;9.07;5.67;;;12.20;99.90;;;;;;7387685;19;20209;-80
2023/05/03 05:37:35;;;;;;;9.00;6.00;;;12.20;99.90;;;;;;7387133;19;20139;-79
2023/05/03 05:40:02;;;;;;;7.20;5.13;;;12.30;99.90;;;;;;7387832;19;20165;-79
2023/05/03 05:42:28;;;;;;;9.32;5.65;;;12.30;99.90;;;;;;7385451;19;20184;-80
2023/05/03 05:44:54;;;;;;;8.50;5.73;;;12.40;99.90;;;;;;7387612;19;20146;-80
2023/05/03 05:47:20;;;;;;;8.83;5.70;;;12.40;99.90;;;;;;7388668;19;20146;-80
2023/05/03 05:49:46;;;;;;;9.47;5.70;;;12.30;99.90;;;;;;7388944;19;20146;-78
2023/05/03 05:52:11;;;;;;;9.17;5.40;;;12.20;99.90;;;;;;7386887;19;20141;-79
2023/05/03 05:54:37;;;;;;;7.50;5.03;;;12.40;99.90;;;;;;7387284;19;20139;-81
2023/05/03 05:57:03;;;;;;;9.67;5.97;;;12.50;99.90;;;;;;7386274;19;20173;-79
2023/05/03 05:59:30;;;;;;;9.37;5.63;;;12.40;99.90;;;;;;7379700;19;20170;-80
2023/05/03 06:01:56;;;;;;;7.90;6.17;;;12.40;99.90;;;;;;7386026;19;20210;-80
2023/05/03 06:04:22;;;;;;;12.23;6.10;;;12.40;99.90;;;;;;7385839;19;20435;-81
2023/05/03 06:06:47;;;;;;;9.73;6.20;;;12.50;99.90;;;;;;7383713;19;20175;-80
2023/05/03 06:09:13;;;;;;;6.73;5.70;;;12.50;99.90;;;;;;7386713;19;20139;-80
2023/05/03 06:11:39;;;;;;;10.30;6.87;;;12.40;99.90;;;;;;7384770;19;20572;-80
2023/05/03 06:14:08;;;;;;;11.03;6.10;;;12.40;99.90;;;;;;7382781;19;20139;-80
2023/05/03 06:16:37;;;;;;;11.40;6.53;;;12.30;99.90;;;;;;7385030;19;20627;-80
2023/05/03 06:19:03;;;;;;;8.87;5.97;;;12.40;99.90;;;;;;7387002;19;20146;-79
2023/05/03 06:21:30;;;;;;;8.10;5.97;;;12.50;99.90;;;;;;7383230;19;20174;-80
2023/05/03 06:23:56;;;;;;;11.40;6.50;;;12.60;99.90;;;;;;7382303;19;20142;-80
2023/05/03 06:26:22;;;;;;;10.37;5.83;;;12.60;99.90;;;;;;7382756;19;20264;-80
2023/05/03 06:28:49;;;;;;;8.10;5.80;;;13.00;99.90;;;;;;7382246;19;20175;-80
2023/05/03 06:31:15;;;;;;;8.60;6.17;;;14.40;99.90;;;;;;7387726;19;20948;-80
2023/05/03 06:33:41;;;;;;;11.05;5.78;;;16.00;99.90;;;;;;7386857;19;20503;-80
2023/05/03 06:36:08;;;;;;;10.90;6.63;;;17.00;99.90;;;;;;7393328;19;20138;-80
2023/05/03 06:38:34;;;;;;;9.90;5.88;;;17.70;99.90;;;;;;7388111;19;20845;-80
2023/05/03 06:40:59;;;;;;;10.60;5.90;;;17.80;99.90;;;;;;7390519;19;20177;-80
2023/05/03 06:43:25;;;;;;;7.40;5.80;;;18.60;99.90;;;;;;7391181;19;20150;-81
2023/05/03 06:45:54;;;;;;;9.23;5.70;;;17.90;99.90;;;;;;7396688;19;20127;-80
2023/05/03 06:48:20;;;;;;;8.88;6.43;;;17.30;99.90;;;;;;7399355;19;20141;-80
2023/05/03 06:50:46;;;;;;;8.55;6.28;;;17.40;99.90;;;;;;7391707;19;20158;-80
2023/05/03 06:53:12;;;;;;;10.73;6.80;;;17.50;99.90;;;;;;7392846;19;20151;-81
2023/05/03 06:55:37;;;;;;;8.63;6.00;;;17.20;99.90;;;;;;7392917;19;20479;-81
2023/05/03 06:58:08;;;;;;;8.23;6.72;;;17.30;99.90;;;;;;7389593;19;20681;-80
2023/05/03 07:00:34;;;;;;;7.05;4.85;;;17.80;99.90;;;;;;7390705;19;20169;-81
2023/05/03 07:03:00;;;;;;;9.63;6.30;;;17.80;99.90;;;;;;7390228;19;20600;-80
2023/05/03 07:05:26;;;;;;;7.55;5.55;;;18.10;99.90;;;;;;7390887;19;20613;-80
2023/05/03 07:07:52;;;;;;;9.35;5.45;;;18.10;99.90;;;;;;7391683;19;20214;-82
2023/05/03 07:10:17;;;;;;;7.68;5.35;;;17.90;99.90;;;;;;7392342;19;20564;-79
2023/05/03 07:12:43;;;;;;;10.38;6.50;;;18.00;99.90;;;;;;7392789;19;20142;-79
2023/05/03 07:15:09;;;;;;;10.75;6.40;;;18.00;99.90;;;;;;7391770;19;20203;-82
2023/05/03 07:17:35;;;;;;;9.07;6.10;;;18.20;99.90;;;;;;7390197;19;20548;-79
2023/05/03 07:20:01;;;;;;;5.43;4.82;;;17.80;99.90;;;;;;7388276;19;20152;-80
2023/05/03 07:22:27;;;;;;;7.68;5.57;;;17.80;99.90;;;;;;7390079;19;20130;-80
2023/05/03 07:24:53;;;;;;;7.97;5.13;;;17.70;99.90;;;;;;7392540;19;20139;-80
2023/05/03 07:27:20;;;;;;;7.82;6.00;;;17.90;99.90;;;;;;7391551;19;20139;-79
2023/05/03 07:29:45;;;;;;;9.00;5.63;;;17.90;99.90;;;;;;7393090;19;20126;-80
2023/05/03 07:32:11;;;;;;;6.70;5.50;;;18.30;99.90;;;;;;7389487;19;20419;-80
2023/05/03 07:34:37;;;;;;;9.85;5.65;;;18.80;99.90;;;;;;7390771;19;20410;-79
2023/05/03 07:37:03;;;;;;;6.45;4.75;;;18.90;99.90;;;;;;7392125;19;20509;-79
2023/05/03 07:39:29;;;;;;;7.93;5.13;;;19.00;99.90;;;;;;7388572;19;20198;-82
2023/05/03 07:41:55;;;;;;;8.10;5.47;;;19.10;99.90;;;;;;7386071;19;20215;-81
2023/05/03 07:44:21;;;;;;;7.13;4.97;;;18.70;99.90;;;;;;7386618;19;20219;-79
2023/05/03 07:46:47;;;;;;;7.68;5.18;;;18.10;99.90;;;;;;7389401;19;20134;-82
2023/05/03 07:49:13;;;;;;;7.85;5.30;;;18.10;99.90;;;;;;7392453;19;20139;-80
2023/05/03 07:51:42;;;;;;;7.88;5.90;;;18.10;99.90;;;;;;7389136;19;20135;-81
2023/05/03 07:54:08;;;;;;;8.77;5.55;;;18.30;99.90;;;;;;7391817;19;20141;-81
2023/05/03 07:56:33;;;;;;;8.80;5.50;;;18.80;99.90;;;;;;7394190;19;20214;-82
2023/05/03 07:58:59;;;;;;;5.97;4.97;;;18.50;99.90;;;;;;7390553;19;20159;-80
2023/05/03 08:01:25;;;;;;;6.43;5.07;;;18.50;99.90;;;;;;7394546;19;20165;-82
2023/05/03 08:03:52;;;;;;;6.95;5.32;;;18.70;99.90;;;;;;7388990;19;20131;-80
2023/05/03 08:06:18;;;;;;;5.47;4.72;;;18.40;99.90;;;;;;7394169;19;20257;-80
2023/05/03 08:08:44;;;;;;;6.68;5.25;;;18.30;99.90;;;;;;7389464;19;20123;-79
2023/05/03 08:11:12;;;;;;;6.32;5.10;;;18.10;99.90;;;;;;7390572;19;20162;-81
2023/05/03 08:13:38;;;;;;;6.00;5.28;;;18.10;99.90;;;;;;7391782;19;20119;-81
2023/05/03 08:16:05;;;;;;;7.32;5.20;;;18.00;99.90;;;;;;7389837;19;20153;-81
2023/05/03 08:18:31;;;;;;;7.03;5.13;;;17.80;99.90;;;;;;7393058;19;20130;-80
2023/05/03 08:20:57;;;;;;;5.78;4.68;;;17.80;99.90;;;;;;7389570;19;20849;-83
2023/05/03 08:23:24;;;;;;;6.50;4.85;;;18.20;99.90;;;;;;7389160;19;20131;-78
2023/05/03 08:25:50;;;;;;;6.55;4.85;;;18.30;99.90;;;;;;7387275;19;20135;-82
2023/05/03 08:28:16;;;;;;;7.50;5.38;;;18.10;99.90;;;;;;7387260;19;20270;-79
2023/05/03 08:30:41;;;;;;;6.28;4.97;;;17.90;99.90;;;;;;7387324;19;20155;-80
2023/05/03 08:33:08;;;;;;;5.93;5.22;;;18.00;99.90;;;;;;7387933;19;20146;-80
2023/05/03 08:35:35;;;;;;;6.25;5.20;;;18.10;99.90;;;;;;7392157;19;20154;-78
2023/05/03 08:38:01;;;;;;;26.33;17.02;;;18.10;99.90;;;;;;7391958;19;20135;-79
2023/05/03 08:40:31;;;;;;;10.55;7.90;;;18.00;99.90;;;;;;7390671;19;20127;-80
2023/05/03 08:43:04;;;;;;;9.05;5.75;;;17.90;99.90;;;;;;7388086;19;20150;-79
2023/05/03 08:45:32;;;;;;;6.80;5.00;;;18.00;99.90;;;;;;7391021;19;20797;-80
2023/05/03 08:48:00;;;;;;;7.25;5.05;;;18.10;99.90;;;;;;7388425;19;20538;-79
2023/05/03 08:50:26;;;;;;;6.95;5.30;;;18.10;99.90;;;;;;7385628;19;20162;-80
2023/05/03 08:52:52;;;;;;;9.13;5.60;;;17.90;99.90;;;;;;7381203;19;20526;-81
2023/05/03 08:55:18;;;;;;;7.82;5.30;;;17.70;99.90;;;;;;7388174;19;20365;-81
2023/05/03 08:57:44;;;;;;;6.55;4.90;;;17.40;99.90;;;;;;7387514;19;20134;-79
2023/05/03 09:00:11;;;;;;;7.78;5.10;;;17.60;99.90;;;;;;7388209;19;20150;-81
2023/05/03 09:02:38;;;;;;;8.23;5.47;;;17.70;99.90;;;;;;7391694;19;20622;-78
2023/05/03 09:05:16;;;;;;;8.35;5.10;;;17.90;99.90;;;;;;7394713;19;20611;-79
2023/05/03 09:08:03;;;;;;;7.68;5.28;;;17.80;99.90;;;;;;7393343;19;20142;-79
2023/05/03 09:10:30;;;;;;;7.03;5.07;;;17.70;99.90;;;;;;7392469;19;20151;-79
2023/05/03 09:13:00;;;;;;;6.93;4.47;;;17.40;99.90;;;;;;7389559;19;20150;-77
2023/05/03 09:15:29;;;;;;;5.90;4.90;;;17.20;99.90;;;;;;7388355;19;20485;-76
2023/05/03 09:18:17;;;;;;;6.78;5.10;;;17.60;99.90;;;;;;7386918;19;20145;-78
2023/05/03 09:20:50;;;;;;;5.60;4.68;;;17.60;99.90;;;;;;7390568;19;20131;-79
2023/05/03 09:23:29;;;;;;;6.95;5.03;;;17.70;99.90;;;;;;7390325;19;20134;-77
2023/05/03 09:25:56;;;;;;;5.95;4.47;;;17.90;99.90;;;;;;7390647;19;20583;-78
2023/05/03 09:28:21;;;;;;;6.85;4.90;;;18.20;99.90;;;;;;7388656;19;20210;-77
2023/05/03 09:31:02;;;;;;;6.55;4.45;;;18.40;99.90;;;;;;7385610;19;20161;-79
2023/05/03 09:33:29;;;;;;;7.32;5.38;;;18.10;99.90;;;;;;7389062;19;20141;-79
2023/05/03 09:36:04;;;;;;;7.82;4.95;;;17.70;99.90;;;;;;7387941;19;20147;-79
2023/05/03 09:38:32;;;;;;;6.13;5.28;;;17.70;99.90;;;;;;7385498;19;20217;-80
2023/05/03 09:40:58;;;;;;;7.07;4.50;;;17.60;99.90;;;;;;7385764;19;20182;-80
2023/05/03 09:43:24;;;;;;;7.25;5.10;;;17.50;99.90;;;;;;7386659;19;20143;-79
2023/05/03 09:45:50;;;;;;;7.97;5.35;;;17.60;99.90;;;;;;7388045;19;20142;-79
2023/05/03 09:48:17;;;;;;;6.03;4.90;;;17.50;99.90;;;;;;7394237;19;20131;-79
2023/05/03 09:50:43;;;;;;;7.20;4.93;;;17.30;99.90;;;;;;7390192;19;20127;-79
2023/05/03 09:53:09;;;;;;;9.23;5.20;;;17.40;99.90;;;;;;7389636;19;20154;-80
2023/05/03 09:55:39;;;;;;;7.28;4.28;;;17.50;99.90;;;;;;7386158;19;20161;-78
2023/05/03 09:58:06;;;;;;;8.00;6.85;;;17.50;99.90;;;;;;7387608;19;20138;-76
2023/05/03 10:00:37;;;;;;;6.50;4.45;;;17.80;99.90;;;;;;7384396;19;20145;-77
2023/05/03 10:03:11;;;;;;;5.70;4.82;;;18.30;99.90;;;;;;7385032;19;20161;-75
2023/05/03 10:05:47;;;;;;;6.43;4.78;;;18.30;99.90;;;;;;7391708;19;20621;-75
2023/05/03 10:08:28;;;;;;;5.78;4.85;;;18.00;99.90;;;;;;7392340;19;20599;-75
2023/05/03 10:10:54;;;;;;;6.82;5.25;;;17.60;99.90;;;;;;7388106;19;20158;-76
2023/05/03 10:13:22;;;;;;;6.00;4.95;;;17.50;99.90;;;;;;7392029;19;20521;-76
2023/05/03 10:16:02;;;;;;;6.07;4.43;;;17.60;99.90;;;;;;7391200;19;20130;-76
2023/05/03 10:18:31;;;;;;;5.95;4.32;;;17.60;99.90;;;;;;7391542;19;20122;-75
2023/05/03 10:21:01;;;;;;;6.60;3.83;;;17.60;99.90;;;;;;7391793;19;20603;-77
2023/05/03 10:23:27;;;;;;;6.43;4.80;;;17.70;99.90;;;;;;7384899;19;20395;-73
2023/05/03 10:26:13;;;;;;;5.82;4.63;;;17.60;99.90;;;;;;7389489;19;20410;-75
2023/05/03 10:28:38;;;;;;;5.80;4.45;;;17.70;99.90;;;;;;7387771;19;20383;-76
2023/05/03 10:31:04;;;;;;;6.18;3.63;;;17.60;99.90;;;;;;7388348;19;20149;-76
2023/05/03 10:33:33;;;;;;;4.80;3.60;;;17.50;99.90;;;;;;7392476;19;20603;-76
2023/05/03 10:36:05;;;;;;;4.43;3.60;;;17.60;99.90;;;;;;7391459;19;20502;-75
2023/05/03 10:38:32;;;;;;;6.95;3.92;;;17.50;99.90;;;;;;7390877;19;20131;-75
2023/05/03 10:41:02;;;;;;;5.10;3.80;;;17.60;99.90;;;;;;7390725;19;20155;-74
2023/05/03 10:43:30;;;;;;;4.47;3.40;;;17.70;99.90;;;;;;7391934;19;20142;-74
2023/05/03 10:46:04;;;;;;;4.40;3.80;;;17.90;99.90;;;;;;7391666;19;20139;-75
2023/05/03 10:48:31;;;;;;;5.70;3.50;;;18.10;99.90;;;;;;7392850;19;20162;-75
2023/05/03 10:51:31;;;;;;;5.93;4.00;;;18.20;99.90;;;;;;7389365;19;20414;-75
2023/05/03 10:53:58;;;;;;;5.28;3.67;;;18.40;99.90;;;;;;7393207;19;20127;-75
2023/05/03 10:56:24;;;;;;;4.85;3.60;;;18.40;99.90;;;;;;7394928;19;20131;-75
2023/05/03 10:58:54;;;;;;;3.75;3.20;;;18.30;99.90;;;;;;7392296;19;20767;-76
2023/05/03 11:01:22;;;;;;;5.00;3.88;;;18.40;99.90;;;;;;7390343;19;20391;-75
2023/05/03 11:04:03;;;;;;;5.32;3.47;;;18.30;99.90;;;;;;7391788;19;20591;-75
2023/05/03 11:06:44;;;;;;;4.80;3.63;;;18.40;99.90;;;;;;7392907;19;20131;-77
2023/05/03 11:09:13;;;;;;;5.13;3.35;;;18.70;99.90;;;;;;7391355;19;20151;-76
2023/05/03 11:11:40;;;;;;;4.43;3.65;;;18.70;99.90;;;;;;7393347;19;20206;-76
2023/05/03 11:14:07;;;;;;;5.07;3.47;;;18.70;99.90;;;;;;7390616;19;20130;-75
2023/05/03 11:16:45;;;;;;;4.40;3.13;;;18.70;99.90;;;;;;7392389;19;20198;-76
2023/05/03 11:19:12;;;;;;;3.92;3.25;;;18.80;99.90;;;;;;7388115;19;20147;-76
2023/05/03 11:21:37;;;;;;;5.00;3.40;;;19.00;99.90;;;;;;7384772;19;20142;-76
2023/05/03 11:24:04;;;;;;;5.78;3.50;;;19.10;99.90;;;;;;7390204;19;20147;-75
2023/05/03 11:26:35;;;;;;;4.10;3.30;;;19.20;99.90;;;;;;7390539;19;20163;-79
2023/05/03 11:29:00;;;;;;;5.25;3.25;;;19.20;99.90;;;;;;7392873;19;20262;-78
2023/05/03 11:31:27;;;;;;;3.97;3.15;;;18.90;99.90;;;;;;7387944;19;20624;-79
2023/05/03 11:33:53;;;;;;;4.30;3.22;;;18.70;99.90;;;;;;7388304;19;20138;-79
2023/05/03 11:36:19;;;;;;;6.85;3.28;;;18.80;99.90;;;;;;7390324;19;20681;-80
2023/05/03 11:38:45;;;;;;;3.78;3.13;;;19.10;99.90;;;;;;7389730;19;20154;-79
2023/05/03 11:41:13;;;;;;;5.38;3.10;;;19.20;99.90;;;;;;7393624;19;20174;-78
2023/05/03 11:43:57;;;;;;;3.05;2.40;;;19.30;99.90;;;;;;7394486;19;20158;-77
2023/05/03 11:46:28;;;;;;;4.65;3.83;;;19.30;99.90;;;;;;7390658;19;20142;-79
2023/05/03 11:48:54;;;;;;;3.90;3.00;;;19.60;99.90;;;;;;7396682;19;20270;-79
2023/05/03 11:51:25;;;;;;;3.08;2.83;;;19.50;99.90;;;;;;7390745;19;20127;-78
2023/05/03 11:53:51;;;;;;;5.28;3.10;;;19.40;99.90;;;;;;7401071;19;20164;-79
2023/05/03 11:56:19;;;;;;;4.47;3.20;;;19.70;99.90;;;;;;7399526;19;20150;-79
2023/05/03 11:59:03;;;;;;;5.18;3.30;;;20.10;99.90;;;;;;7396885;19;20154;-80
2023/05/03 12:01:31;;;;;;;3.83;3.42;;;20.00;99.90;;;;;;7395010;19;20150;-80
2023/05/03 12:04:02;;;;;;;4.53;3.63;;;19.90;99.90;;;;;;7395095;19;20541;-78
2023/05/03 12:06:33;;;;;;;5.05;3.30;;;19.70;99.90;;;;;;7395492;19;20170;-77
2023/05/03 12:09:02;;;;;;;5.30;3.00;;;19.50;99.90;;;;;;7391614;19;20161;-79
2023/05/03 12:11:28;;;;;;;4.47;3.40;;;19.50;99.90;;;;;;7393838;19;20130;-78
2023/05/03 12:13:58;;;;;;;3.95;3.20;;;19.30;99.90;;;;;;7392690;19;20215;-80
2023/05/03 12:16:24;;;;;;;7.05;3.50;;;19.20;99.90;;;;;;7391128;19;20166;-80
2023/05/03 12:19:01;;;;;;;5.32;3.25;;;19.20;99.90;;;;;;7388672;19;20138;-79
2023/05/03 12:21:47;;;;;;;5.22;3.45;;;19.20;99.90;;;;;;7390320;19;20145;-79
2023/05/03 12:24:18;;;;;;;4.68;2.53;;;19.30;99.90;;;;;;7390773;19;20216;-79
2023/05/03 12:26:46;;;;;;;4.55;3.20;;;19.50;99.90;;;;;;7389182;19;20226;-78
2023/05/03 12:29:13;;;;;;;2.70;2.20;;;19.70;99.90;;;;;;7395142;19;20202;-78
2023/05/03 12:31:39;;;;;;;4.15;2.65;;;19.80;99.90;;;;;;7391160;19;20467;-79
2023/05/03 12:34:06;;;;;;;3.25;2.60;;;19.80;99.90;;;;;;7389928;19;20160;-78
2023/05/03 12:36:33;;;;;;;4.93;2.80;;;19.70;99.90;;;;;;7390509;19;20130;-80
2023/05/03 12:39:00;;;;;;;5.63;2.60;;;19.80;99.90;;;;;;7392034;19;20599;-79
2023/05/03 12:41:28;;;;;;;3.58;2.80;;;19.90;99.90;;;;;;7391190;19;20206;-79
2023/05/03 12:43:55;;;;;;;3.10;2.80;;;19.70;99.90;;;;;;7394197;19;20146;-81
2023/05/03 12:46:22;;;;;;;2.50;2.20;;;19.70;99.90;;;;;;7393576;19;20146;-79
2023/05/03 12:48:49;;;;;;;4.25;2.70;;;19.90;99.90;;;;;;7393259;19;20206;-80